Providence, Illinois
Current Conditions -  °F | °C
As of 4:15 PM on Friday 24 Oct 2014 (Local Time) from KC75 Reporting Station
Clear Clear  
Wind Chill: 19°   Ceiling: Unl
Heat Index: 19°   Visibility: 10mi
Dew Point:   Wind: 9mph
Humidity: 48%   Direction: 200°SSW
Pressure: 29.96"   Gusts: NA
Location:  41.2776°N, 89.5099°W
Report Text: KC75 242115Z AUTO 20008KT 10SM CLR 19/07 A2996 RMK AO2 T01850072
Loading
Personal Weather Stations






























Interactive Weather Map
Tropical Storm Tracking
New forecast layout! Learn more

10-Day Weather Forecast

Advertisements
Track Severe Weather on mobile